Kraków, Polska

17:07 CEST dnia 24-kwiecień-2017 (GMT +0200)
John Paul II International / Krakow-Balice | | Change Station

Wysokość 778 ft 50.08 °N, 19.80 °E | Updated 7 minutes ago

Scattered Clouds
obłoki zanikające
50 ° F
Odczuwalna 50 ° F
Płn.
13
Wiatr zmienny Wiatr od PdZd

Dziś
Wysoka -- | Niska -- ° F
--% Prawdop. opadów
Wczoraj
Wysoka -- | Niska -- ° F
Precip. -- cali
Ciśnienie 29.98 cali
Widzialność 6.2 mil
chmury obłoki zanikające 5000 ft
Punkt rosy 28 ° F
Wilgotność 43%
Opady deszczu 0.00 cali
grubość pokrywy śnieżnej Niedostępne.
5:29 AM 7:49 PM
Zmniejszający się sierp Księżyca, 5% visible
METAR EPKK 241500Z 22011KT 190V260 9999 SCT050 10/M02 Q1015
Ciśnienie 29.98 cali
Widzialność 6.2 mil
chmury obłoki zanikające 5000 ft
Punkt rosy 28 ° F
Wilgotność 43%
Opady deszczu 0.00 cali
grubość pokrywy śnieżnej Niedostępne.
5:29 AM 7:49 PM
Zmniejszający się sierp Księżyca, 5% visible
METAR EPKK 241500Z 22011KT 190V260 9999 SCT050 10/M02 Q1015

Get Severe Weather Alerts

Thanks for signing up!

Be on the lookout for a verification email in your inbox.

You'll start receiving the daily forecast at 8 AM.

×

10-Day Weather Forecast

×

Almanac

Astronomia

Apr. 24, 2017 Wschód Zachów
Aktualny czas
Zmierzch cywilny
Zmierzch żeglarski
świt/zmierzch astronomiczny
Księżyc
całkowite oświetlenie
Długość dnia
Tomorrow will be .
, % of the Moon is Illuminated

Dzisiejsze ekstrema

Country Highs Country Lows

Community

WunderPhotos

WunderBlog® & News

Nearby

Jakość powietrza

  Jakość powietrza czynnik AQ Zanieczyszczenie
Not available.

Głębokość pokrywy śnieżnej

Station Depth n.p.m.

Aktywność sejsmiczna

Miejscowość Distance Mag. Time & Date
Minimum magnitude displayed is 2.5.

Temperatury wody na wybrzeżu

Miejsce Temperatura

Stations

Najbliższa stacja pogodowa

Lokalizacja stacji Temp. czynnik chłodzący wiatru Punkt rosy Wilgotność Wiatr Precip. Wysokość Uaktualniono Typ